sensor_id;sensor_type;location;lat;lon;timestamp;P1;durP1;ratioP1;P2;durP2;ratioP2
7495;SDS011;3789;47.064;15.482;2022-07-18T00:00:32;3.67;;;3.33;;
7495;SDS011;3789;47.064;15.482;2022-07-18T00:03:09;3.63;;;3.33;;
7495;SDS011;3789;47.064;15.482;2022-07-18T00:05:45;3.90;;;2.97;;
7495;SDS011;3789;47.064;15.482;2022-07-18T00:08:14;3.75;;;3.17;;
7495;SDS011;3789;47.064;15.482;2022-07-18T00:10:45;5.60;;;3.63;;
7495;SDS011;3789;47.064;15.482;2022-07-18T00:13:16;3.97;;;3.58;;
7495;SDS011;3789;47.064;15.482;2022-07-18T00:15:53;3.50;;;3.20;;
7495;SDS011;3789;47.064;15.482;2022-07-18T00:18:23;3.53;;;3.22;;
7495;SDS011;3789;47.064;15.482;2022-07-18T00:20:52;4.47;;;3.40;;
7495;SDS011;3789;47.064;15.482;2022-07-18T00:23:23;4.03;;;3.53;;
7495;SDS011;3789;47.064;15.482;2022-07-18T00:25:53;4.03;;;3.63;;
7495;SDS011;3789;47.064;15.482;2022-07-18T00:28:23;3.65;;;3.35;;
7495;SDS011;3789;47.064;15.482;2022-07-18T00:30:54;4.00;;;3.60;;
7495;SDS011;3789;47.064;15.482;2022-07-18T00:33:24;3.67;;;3.38;;
7495;SDS011;3789;47.064;15.482;2022-07-18T00:35:59;3.72;;;3.42;;
7495;SDS011;3789;47.064;15.482;2022-07-18T00:38:30;3.60;;;3.30;;
7495;SDS011;3789;47.064;15.482;2022-07-18T00:41:01;4.10;;;3.70;;
7495;SDS011;3789;47.064;15.482;2022-07-18T00:43:29;3.88;;;3.47;;
7495;SDS011;3789;47.064;15.482;2022-07-18T00:46:00;4.15;;;3.40;;
7495;SDS011;3789;47.064;15.482;2022-07-18T00:48:37;6.05;;;3.90;;
7495;SDS011;3789;47.064;15.482;2022-07-18T00:51:09;4.05;;;3.30;;
7495;SDS011;3789;47.064;15.482;2022-07-18T00:53:47;3.47;;;3.17;;
7495;SDS011;3789;47.064;15.482;2022-07-18T00:56:21;4.70;;;3.38;;
7495;SDS011;3789;47.064;15.482;2022-07-18T00:58:59;4.60;;;3.63;;
7495;SDS011;3789;47.064;15.482;2022-07-18T01:01:31;3.40;;;3.10;;
7495;SDS011;3789;47.064;15.482;2022-07-18T01:04:17;4.10;;;3.30;;
7495;SDS011;3789;47.064;15.482;2022-07-18T01:06:54;3.50;;;3.20;;
7495;SDS011;3789;47.064;15.482;2022-07-18T01:09:26;4.03;;;3.63;;
7495;SDS011;3789;47.064;15.482;2022-07-18T01:12:02;4.20;;;3.63;;
7495;SDS011;3789;47.064;15.482;2022-07-18T01:14:35;3.80;;;3.43;;
7495;SDS011;3789;47.064;15.482;2022-07-18T01:17:14;4.30;;;3.50;;
7495;SDS011;3789;47.064;15.482;2022-07-18T01:19:46;5.30;;;3.63;;
7495;SDS011;3789;47.064;15.482;2022-07-18T01:22:16;4.03;;;3.22;;
7495;SDS011;3789;47.064;15.482;2022-07-18T01:24:55;4.47;;;3.30;;
7495;SDS011;3789;47.064;15.482;2022-07-18T01:27:25;3.78;;;3.30;;
7495;SDS011;3789;47.064;15.482;2022-07-18T01:29:55;3.60;;;3.30;;
7495;SDS011;3789;47.064;15.482;2022-07-18T01:32:25;3.95;;;3.53;;
7495;SDS011;3789;47.064;15.482;2022-07-18T01:34:52;3.88;;;3.30;;
7495;SDS011;3789;47.064;15.482;2022-07-18T01:37:19;3.28;;;3.05;;
7495;SDS011;3789;47.064;15.482;2022-07-18T01:39:46;4.20;;;3.30;;
7495;SDS011;3789;47.064;15.482;2022-07-18T01:42:14;4.63;;;3.40;;
7495;SDS011;3789;47.064;15.482;2022-07-18T01:44:42;4.00;;;3.30;;
7495;SDS011;3789;47.064;15.482;2022-07-18T01:47:10;3.55;;;3.33;;
7495;SDS011;3789;47.064;15.482;2022-07-18T01:49:39;4.13;;;3.50;;
7495;SDS011;3789;47.064;15.482;2022-07-18T01:52:06;3.95;;;3.25;;
7495;SDS011;3789;47.064;15.482;2022-07-18T01:54:35;3.60;;;3.30;;
7495;SDS011;3789;47.064;15.482;2022-07-18T01:57:03;3.47;;;3.17;;
7495;SDS011;3789;47.064;15.482;2022-07-18T01:59:31;3.72;;;3.30;;
7495;SDS011;3789;47.064;15.482;2022-07-18T02:01:59;3.28;;;2.97;;
7495;SDS011;3789;47.064;15.482;2022-07-18T02:04:26;4.60;;;4.20;;
7495;SDS011;3789;47.064;15.482;2022-07-18T02:07:12;3.47;;;3.17;;
7495;SDS011;3789;47.064;15.482;2022-07-18T02:09:39;3.70;;;3.40;;
7495;SDS011;3789;47.064;15.482;2022-07-18T02:12:06;3.70;;;3.40;;
7495;SDS011;3789;47.064;15.482;2022-07-18T02:14:33;4.38;;;3.97;;
7495;SDS011;3789;47.064;15.482;2022-07-18T02:17:01;3.80;;;3.45;;
7495;SDS011;3789;47.064;15.482;2022-07-18T02:19:28;3.85;;;3.55;;
7495;SDS011;3789;47.064;15.482;2022-07-18T02:21:55;3.88;;;3.58;;
7495;SDS011;3789;47.064;15.482;2022-07-18T02:24:23;4.05;;;3.70;;
7495;SDS011;3789;47.064;15.482;2022-07-18T02:26:50;3.97;;;3.63;;
7495;SDS011;3789;47.064;15.482;2022-07-18T02:29:17;4.30;;;3.90;;
7495;SDS011;3789;47.064;15.482;2022-07-18T02:31:44;4.97;;;3.80;;
7495;SDS011;3789;47.064;15.482;2022-07-18T02:34:11;3.97;;;3.58;;
7495;SDS011;3789;47.064;15.482;2022-07-18T02:36:40;4.13;;;3.72;;
7495;SDS011;3789;47.064;15.482;2022-07-18T02:39:08;6.72;;;3.85;;
7495;SDS011;3789;47.064;15.482;2022-07-18T02:41:35;4.40;;;4.00;;
7495;SDS011;3789;47.064;15.482;2022-07-18T02:44:03;4.88;;;4.00;;
7495;SDS011;3789;47.064;15.482;2022-07-18T02:46:31;4.93;;;4.35;;
7495;SDS011;3789;47.064;15.482;2022-07-18T02:48:59;6.17;;;4.57;;
7495;SDS011;3789;47.064;15.482;2022-07-18T02:51:27;5.10;;;4.63;;
7495;SDS011;3789;47.064;15.482;2022-07-18T02:53:54;5.90;;;4.73;;
7495;SDS011;3789;47.064;15.482;2022-07-18T02:56:22;5.50;;;5.00;;
7495;SDS011;3789;47.064;15.482;2022-07-18T02:58:49;6.20;;;4.88;;
7495;SDS011;3789;47.064;15.482;2022-07-18T03:01:16;5.40;;;4.90;;
7495;SDS011;3789;47.064;15.482;2022-07-18T03:03:44;5.03;;;4.63;;
7495;SDS011;3789;47.064;15.482;2022-07-18T03:06:11;5.47;;;4.70;;
7495;SDS011;3789;47.064;15.482;2022-07-18T03:08:38;5.87;;;4.80;;
7495;SDS011;3789;47.064;15.482;2022-07-18T03:11:05;5.73;;;5.23;;
7495;SDS011;3789;47.064;15.482;2022-07-18T03:13:32;6.33;;;5.50;;
7495;SDS011;3789;47.064;15.482;2022-07-18T03:16:00;6.03;;;5.47;;
7495;SDS011;3789;47.064;15.482;2022-07-18T03:18:27;6.10;;;5.50;;
7495;SDS011;3789;47.064;15.482;2022-07-18T03:20:54;7.47;;;5.20;;
7495;SDS011;3789;47.064;15.482;2022-07-18T03:23:22;6.57;;;5.30;;
7495;SDS011;3789;47.064;15.482;2022-07-18T03:25:49;6.33;;;4.90;;
7495;SDS011;3789;47.064;15.482;2022-07-18T03:28:16;5.30;;;4.90;;
7495;SDS011;3789;47.064;15.482;2022-07-18T03:30:43;5.87;;;5.27;;
7495;SDS011;3789;47.064;15.482;2022-07-18T03:33:10;5.60;;;5.00;;
7495;SDS011;3789;47.064;15.482;2022-07-18T03:35:38;5.23;;;4.73;;
7495;SDS011;3789;47.064;15.482;2022-07-18T03:38:05;6.17;;;5.57;;
7495;SDS011;3789;47.064;15.482;2022-07-18T03:40:32;5.70;;;4.60;;
7495;SDS011;3789;47.064;15.482;2022-07-18T03:42:59;5.40;;;4.70;;
7495;SDS011;3789;47.064;15.482;2022-07-18T03:45:26;6.20;;;5.60;;
7495;SDS011;3789;47.064;15.482;2022-07-18T03:47:54;5.90;;;4.60;;
7495;SDS011;3789;47.064;15.482;2022-07-18T03:50:22;4.73;;;4.33;;
7495;SDS011;3789;47.064;15.482;2022-07-18T03:52:49;5.37;;;4.87;;
7495;SDS011;3789;47.064;15.482;2022-07-18T03:55:16;4.80;;;4.40;;
7495;SDS011;3789;47.064;15.482;2022-07-18T03:57:43;5.30;;;4.80;;
7495;SDS011;3789;47.064;15.482;2022-07-18T04:00:11;5.00;;;4.50;;
7495;SDS011;3789;47.064;15.482;2022-07-18T04:02:40;6.25;;;4.72;;
7495;SDS011;3789;47.064;15.482;2022-07-18T04:05:08;5.10;;;4.03;;
7495;SDS011;3789;47.064;15.482;2022-07-18T04:07:36;5.53;;;4.90;;
7495;SDS011;3789;47.064;15.482;2022-07-18T04:10:04;4.50;;;4.10;;
7495;SDS011;3789;47.064;15.482;2022-07-18T04:12:33;4.85;;;4.40;;
7495;SDS011;3789;47.064;15.482;2022-07-18T04:15:10;5.32;;;4.82;;
7495;SDS011;3789;47.064;15.482;2022-07-18T04:17:37;4.40;;;4.00;;
7495;SDS011;3789;47.064;15.482;2022-07-18T04:20:04;4.45;;;3.90;;
7495;SDS011;3789;47.064;15.482;2022-07-18T04:22:32;4.45;;;4.07;;
7495;SDS011;3789;47.064;15.482;2022-07-18T04:25:10;4.43;;;4.03;;
7495;SDS011;3789;47.064;15.482;2022-07-18T04:27:38;6.88;;;3.75;;
7495;SDS011;3789;47.064;15.482;2022-07-18T04:30:05;3.95;;;3.60;;
7495;SDS011;3789;47.064;15.482;2022-07-18T04:32:33;4.40;;;3.80;;
7495;SDS011;3789;47.064;15.482;2022-07-18T04:35:00;5.28;;;3.63;;
7495;SDS011;3789;47.064;15.482;2022-07-18T04:37:29;4.00;;;3.58;;
7495;SDS011;3789;47.064;15.482;2022-07-18T04:40:00;3.80;;;3.50;;
7495;SDS011;3789;47.064;15.482;2022-07-18T04:42:28;3.70;;;3.40;;
7495;SDS011;3789;47.064;15.482;2022-07-18T04:44:57;3.92;;;3.42;;
7495;SDS011;3789;47.064;15.482;2022-07-18T04:47:26;4.88;;;3.80;;
7495;SDS011;3789;47.064;15.482;2022-07-18T04:49:55;4.20;;;3.80;;
7495;SDS011;3789;47.064;15.482;2022-07-18T04:52:22;3.85;;;3.55;;
7495;SDS011;3789;47.064;15.482;2022-07-18T04:54:50;4.82;;;3.40;;
7495;SDS011;3789;47.064;15.482;2022-07-18T04:57:17;3.78;;;3.47;;
7495;SDS011;3789;47.064;15.482;2022-07-18T04:59:45;3.60;;;3.30;;
7495;SDS011;3789;47.064;15.482;2022-07-18T05:02:12;4.07;;;3.47;;
7495;SDS011;3789;47.064;15.482;2022-07-18T05:04:39;3.67;;;3.38;;
7495;SDS011;3789;47.064;15.482;2022-07-18T05:07:07;4.82;;;3.78;;
7495;SDS011;3789;47.064;15.482;2022-07-18T05:09:34;3.90;;;3.60;;
7495;SDS011;3789;47.064;15.482;2022-07-18T05:12:01;4.28;;;3.88;;
7495;SDS011;3789;47.064;15.482;2022-07-18T05:14:29;4.00;;;3.60;;
7495;SDS011;3789;47.064;15.482;2022-07-18T05:16:56;7.82;;;4.35;;
7495;SDS011;3789;47.064;15.482;2022-07-18T05:19:23;4.55;;;3.63;;
7495;SDS011;3789;47.064;15.482;2022-07-18T05:21:50;4.22;;;3.70;;
7495;SDS011;3789;47.064;15.482;2022-07-18T05:24:17;4.00;;;3.60;;
7495;SDS011;3789;47.064;15.482;2022-07-18T05:26:44;4.07;;;3.58;;
7495;SDS011;3789;47.064;15.482;2022-07-18T05:29:12;4.47;;;4.05;;
7495;SDS011;3789;47.064;15.482;2022-07-18T05:31:40;4.75;;;4.28;;
7495;SDS011;3789;47.064;15.482;2022-07-18T05:34:08;4.70;;;4.22;;
7495;SDS011;3789;47.064;15.482;2022-07-18T05:36:35;5.53;;;3.90;;
7495;SDS011;3789;47.064;15.482;2022-07-18T05:39:05;4.07;;;3.78;;
7495;SDS011;3789;47.064;15.482;2022-07-18T05:41:32;4.03;;;3.63;;
7495;SDS011;3789;47.064;15.482;2022-07-18T05:43:59;4.38;;;3.97;;
7495;SDS011;3789;47.064;15.482;2022-07-18T05:46:26;4.07;;;3.67;;
7495;SDS011;3789;47.064;15.482;2022-07-18T05:48:53;4.22;;;3.90;;
7495;SDS011;3789;47.064;15.482;2022-07-18T05:51:20;4.07;;;3.63;;
7495;SDS011;3789;47.064;15.482;2022-07-18T05:53:48;4.20;;;3.60;;
7495;SDS011;3789;47.064;15.482;2022-07-18T05:56:15;3.83;;;3.53;;
7495;SDS011;3789;47.064;15.482;2022-07-18T05:58:43;3.88;;;3.35;;
7495;SDS011;3789;47.064;15.482;2022-07-18T06:01:12;3.70;;;3.40;;
7495;SDS011;3789;47.064;15.482;2022-07-18T06:03:43;4.05;;;3.75;;
7495;SDS011;3789;47.064;15.482;2022-07-18T06:06:11;3.83;;;3.45;;
7495;SDS011;3789;47.064;15.482;2022-07-18T06:08:38;3.80;;;3.50;;
7495;SDS011;3789;47.064;15.482;2022-07-18T06:11:05;4.30;;;3.80;;
7495;SDS011;3789;47.064;15.482;2022-07-18T06:13:34;3.60;;;3.30;;
7495;SDS011;3789;47.064;15.482;2022-07-18T06:16:03;3.75;;;3.45;;
7495;SDS011;3789;47.064;15.482;2022-07-18T06:18:32;4.85;;;3.55;;
7495;SDS011;3789;47.064;15.482;2022-07-18T06:21:03;3.38;;;3.17;;
7495;SDS011;3789;47.064;15.482;2022-07-18T06:23:31;5.13;;;4.50;;
7495;SDS011;3789;47.064;15.482;2022-07-18T06:25:58;4.28;;;3.72;;
7495;SDS011;3789;47.064;15.482;2022-07-18T06:28:25;3.92;;;3.63;;
7495;SDS011;3789;47.064;15.482;2022-07-18T06:30:54;4.00;;;3.70;;
7495;SDS011;3789;47.064;15.482;2022-07-18T06:33:22;3.55;;;3.25;;
7495;SDS011;3789;47.064;15.482;2022-07-18T06:35:49;3.78;;;3.47;;
7495;SDS011;3789;47.064;15.482;2022-07-18T06:38:16;4.65;;;3.55;;
7495;SDS011;3789;47.064;15.482;2022-07-18T06:40:43;4.72;;;3.90;;
7495;SDS011;3789;47.064;15.482;2022-07-18T06:43:11;4.10;;;3.70;;
7495;SDS011;3789;47.064;15.482;2022-07-18T06:45:40;3.95;;;3.65;;
7495;SDS011;3789;47.064;15.482;2022-07-18T06:48:07;3.60;;;3.30;;
7495;SDS011;3789;47.064;15.482;2022-07-18T06:50:36;4.38;;;3.38;;
7495;SDS011;3789;47.064;15.482;2022-07-18T06:53:03;3.75;;;3.30;;
7495;SDS011;3789;47.064;15.482;2022-07-18T06:55:30;4.03;;;3.35;;
7495;SDS011;3789;47.064;15.482;2022-07-18T06:57:57;3.80;;;3.50;;
7495;SDS011;3789;47.064;15.482;2022-07-18T07:00:25;5.90;;;3.60;;
7495;SDS011;3789;47.064;15.482;2022-07-18T07:02:53;3.72;;;3.22;;
7495;SDS011;3789;47.064;15.482;2022-07-18T07:05:20;3.60;;;3.17;;
7495;SDS011;3789;47.064;15.482;2022-07-18T07:07:48;3.65;;;3.40;;
7495;SDS011;3789;47.064;15.482;2022-07-18T07:10:17;4.35;;;3.65;;
7495;SDS011;3789;47.064;15.482;2022-07-18T07:12:46;3.50;;;3.20;;
7495;SDS011;3789;47.064;15.482;2022-07-18T07:15:15;3.50;;;3.17;;
7495;SDS011;3789;47.064;15.482;2022-07-18T07:17:44;3.30;;;3.00;;
7495;SDS011;3789;47.064;15.482;2022-07-18T07:20:12;3.45;;;3.15;;
7495;SDS011;3789;47.064;15.482;2022-07-18T07:22:40;3.53;;;3.20;;
7495;SDS011;3789;47.064;15.482;2022-07-18T07:25:12;3.22;;;3.00;;
7495;SDS011;3789;47.064;15.482;2022-07-18T07:27:40;3.15;;;2.85;;
7495;SDS011;3789;47.064;15.482;2022-07-18T07:30:08;3.38;;;3.03;;
7495;SDS011;3789;47.064;15.482;2022-07-18T07:32:38;3.13;;;2.92;;
7495;SDS011;3789;47.064;15.482;2022-07-18T07:35:09;3.38;;;3.08;;
7495;SDS011;3789;47.064;15.482;2022-07-18T07:37:39;3.15;;;2.90;;
7495;SDS011;3789;47.064;15.482;2022-07-18T07:40:08;3.30;;;3.00;;
7495;SDS011;3789;47.064;15.482;2022-07-18T07:42:36;3.60;;;2.80;;
7495;SDS011;3789;47.064;15.482;2022-07-18T07:45:04;3.42;;;2.90;;
7495;SDS011;3789;47.064;15.482;2022-07-18T07:47:32;3.42;;;2.83;;
7495;SDS011;3789;47.064;15.482;2022-07-18T07:50:00;3.22;;;2.92;;
7495;SDS011;3789;47.064;15.482;2022-07-18T07:52:27;4.63;;;3.00;;
7495;SDS011;3789;47.064;15.482;2022-07-18T07:54:55;3.33;;;3.03;;
7495;SDS011;3789;47.064;15.482;2022-07-18T07:57:22;4.20;;;2.67;;
7495;SDS011;3789;47.064;15.482;2022-07-18T07:59:49;2.97;;;2.78;;
7495;SDS011;3789;47.064;15.482;2022-07-18T08:02:17;3.13;;;2.83;;
7495;SDS011;3789;47.064;15.482;2022-07-18T08:04:45;3.30;;;3.00;;
7495;SDS011;3789;47.064;15.482;2022-07-18T08:07:12;5.85;;;3.05;;
7495;SDS011;3789;47.064;15.482;2022-07-18T08:09:39;3.42;;;3.13;;
7495;SDS011;3789;47.064;15.482;2022-07-18T08:12:06;6.70;;;3.25;;
7495;SDS011;3789;47.064;15.482;2022-07-18T08:14:33;4.57;;;2.70;;
7495;SDS011;3789;47.064;15.482;2022-07-18T08:17:04;3.20;;;2.80;;
7495;SDS011;3789;47.064;15.482;2022-07-18T08:19:31;4.63;;;2.92;;
7495;SDS011;3789;47.064;15.482;2022-07-18T08:21:58;3.80;;;2.78;;
7495;SDS011;3789;47.064;15.482;2022-07-18T08:24:26;2.97;;;2.78;;
7495;SDS011;3789;47.064;15.482;2022-07-18T08:26:53;6.28;;;2.85;;
7495;SDS011;3789;47.064;15.482;2022-07-18T08:29:20;3.58;;;2.60;;
7495;SDS011;3789;47.064;15.482;2022-07-18T08:32:07;4.25;;;3.22;;
7495;SDS011;3789;47.064;15.482;2022-07-18T08:34:35;4.88;;;2.80;;
7495;SDS011;3789;47.064;15.482;2022-07-18T08:37:02;2.92;;;2.72;;
7495;SDS011;3789;47.064;15.482;2022-07-18T08:39:30;3.40;;;3.10;;
7495;SDS011;3789;47.064;15.482;2022-07-18T08:41:58;3.10;;;2.80;;
7495;SDS011;3789;47.064;15.482;2022-07-18T08:44:28;3.00;;;2.80;;
7495;SDS011;3789;47.064;15.482;2022-07-18T08:46:56;3.60;;;2.85;;
7495;SDS011;3789;47.064;15.482;2022-07-18T08:49:25;2.85;;;2.65;;
7495;SDS011;3789;47.064;15.482;2022-07-18T08:51:53;2.92;;;2.60;;
7495;SDS011;3789;47.064;15.482;2022-07-18T08:54:22;3.22;;;2.80;;
7495;SDS011;3789;47.064;15.482;2022-07-18T08:56:49;3.05;;;2.78;;
7495;SDS011;3789;47.064;15.482;2022-07-18T08:59:16;3.00;;;2.70;;
7495;SDS011;3789;47.064;15.482;2022-07-18T09:01:44;2.95;;;2.70;;
7495;SDS011;3789;47.064;15.482;2022-07-18T09:04:30;3.60;;;3.17;;
7495;SDS011;3789;47.064;15.482;2022-07-18T09:07:00;3.03;;;2.65;;
7495;SDS011;3789;47.064;15.482;2022-07-18T09:09:27;3.72;;;2.78;;
7495;SDS011;3789;47.064;15.482;2022-07-18T09:11:55;3.08;;;2.88;;
7495;SDS011;3789;47.064;15.482;2022-07-18T09:17:11;3.25;;;2.85;;
7495;SDS011;3789;47.064;15.482;2022-07-18T09:22:39;2.42;;;2.22;;
7495;SDS011;3789;47.064;15.482;2022-07-18T09:25:10;3.08;;;2.50;;
7495;SDS011;3789;47.064;15.482;2022-07-18T09:27:40;2.42;;;2.22;;
7495;SDS011;3789;47.064;15.482;2022-07-18T09:38:09;3.05;;;2.70;;
7495;SDS011;3789;47.064;15.482;2022-07-18T09:40:42;3.60;;;2.80;;
7495;SDS011;3789;47.064;15.482;2022-07-18T09:43:11;3.17;;;2.88;;
7495;SDS011;3789;47.064;15.482;2022-07-18T09:45:47;3.25;;;2.80;;
7495;SDS011;3789;47.064;15.482;2022-07-18T09:48:22;3.00;;;2.75;;
7495;SDS011;3789;47.064;15.482;2022-07-18T09:50:54;3.13;;;2.92;;
7495;SDS011;3789;47.064;15.482;2022-07-18T09:56:04;4.15;;;2.95;;
7495;SDS011;3789;47.064;15.482;2022-07-18T09:58:34;8.02;;;2.88;;
7495;SDS011;3789;47.064;15.482;2022-07-18T10:01:03;4.13;;;2.97;;
7495;SDS011;3789;47.064;15.482;2022-07-18T10:03:32;3.10;;;2.90;;
7495;SDS011;3789;47.064;15.482;2022-07-18T10:06:01;2.90;;;2.60;;
7495;SDS011;3789;47.064;15.482;2022-07-18T10:08:30;3.10;;;2.90;;
7495;SDS011;3789;47.064;15.482;2022-07-18T10:11:13;3.38;;;3.08;;
7495;SDS011;3789;47.064;15.482;2022-07-18T10:13:40;3.38;;;2.70;;
7495;SDS011;3789;47.064;15.482;2022-07-18T10:16:08;3.55;;;2.78;;
7495;SDS011;3789;47.064;15.482;2022-07-18T10:18:35;3.38;;;3.08;;
7495;SDS011;3789;47.064;15.482;2022-07-18T10:21:10;5.18;;;2.70;;
7495;SDS011;3789;47.064;15.482;2022-07-18T10:23:42;3.15;;;2.83;;
7495;SDS011;3789;47.064;15.482;2022-07-18T10:26:18;3.63;;;2.70;;
7495;SDS011;3789;47.064;15.482;2022-07-18T10:31:24;3.15;;;2.70;;
7495;SDS011;3789;47.064;15.482;2022-07-18T10:36:38;3.13;;;2.60;;
7495;SDS011;3789;47.064;15.482;2022-07-18T10:39:18;3.00;;;2.80;;
7495;SDS011;3789;47.064;15.482;2022-07-18T10:57:30;2.95;;;2.33;;
7495;SDS011;3789;47.064;15.482;2022-07-18T11:00:10;3.65;;;2.75;;
7495;SDS011;3789;47.064;15.482;2022-07-18T11:02:41;2.47;;;2.28;;
7495;SDS011;3789;47.064;15.482;2022-07-18T11:13:28;2.92;;;2.72;;
7495;SDS011;3789;47.064;15.482;2022-07-18T11:16:02;2.72;;;2.53;;
7495;SDS011;3789;47.064;15.482;2022-07-18T11:21:30;4.20;;;2.70;;
7495;SDS011;3789;47.064;15.482;2022-07-18T11:24:06;3.85;;;2.70;;
7495;SDS011;3789;47.064;15.482;2022-07-18T11:26:42;2.67;;;2.47;;
7495;SDS011;3789;47.064;15.482;2022-07-18T11:29:11;3.80;;;2.40;;
7495;SDS011;3789;47.064;15.482;2022-07-18T11:31:42;3.20;;;2.90;;
7495;SDS011;3789;47.064;15.482;2022-07-18T11:34:16;3.03;;;2.50;;
7495;SDS011;3789;47.064;15.482;2022-07-18T11:36:49;2.80;;;2.60;;
7495;SDS011;3789;47.064;15.482;2022-07-18T11:39:32;2.88;;;2.50;;
7495;SDS011;3789;47.064;15.482;2022-07-18T11:42:03;2.63;;;2.38;;
7495;SDS011;3789;47.064;15.482;2022-07-18T11:44:31;2.45;;;2.25;;
7495;SDS011;3789;47.064;15.482;2022-07-18T11:49:29;3.15;;;2.70;;
7495;SDS011;3789;47.064;15.482;2022-07-18T11:51:56;2.60;;;2.40;;
7495;SDS011;3789;47.064;15.482;2022-07-18T11:54:23;2.67;;;2.47;;
7495;SDS011;3789;47.064;15.482;2022-07-18T11:56:52;2.85;;;2.65;;
7495;SDS011;3789;47.064;15.482;2022-07-18T11:59:21;2.33;;;2.22;;
7495;SDS011;3789;47.064;15.482;2022-07-18T12:01:49;3.13;;;2.53;;
7495;SDS011;3789;47.064;15.482;2022-07-18T12:04:22;3.00;;;2.50;;
7495;SDS011;3789;47.064;15.482;2022-07-18T12:09:39;2.38;;;2.17;;
7495;SDS011;3789;47.064;15.482;2022-07-18T12:12:07;2.88;;;2.40;;
7495;SDS011;3789;47.064;15.482;2022-07-18T12:14:58;3.00;;;2.20;;
7495;SDS011;3789;47.064;15.482;2022-07-18T12:17:27;2.67;;;2.35;;
7495;SDS011;3789;47.064;15.482;2022-07-18T12:20:11;3.72;;;2.35;;
7495;SDS011;3789;47.064;15.482;2022-07-18T12:25:41;2.63;;;2.40;;
7495;SDS011;3789;47.064;15.482;2022-07-18T12:28:13;5.15;;;2.90;;
7495;SDS011;3789;47.064;15.482;2022-07-18T12:30:41;2.70;;;2.33;;
7495;SDS011;3789;47.064;15.482;2022-07-18T12:33:09;3.10;;;2.83;;
7495;SDS011;3789;47.064;15.482;2022-07-18T12:35:38;2.80;;;2.60;;
7495;SDS011;3789;47.064;15.482;2022-07-18T12:38:10;4.07;;;2.90;;
7495;SDS011;3789;47.064;15.482;2022-07-18T12:43:16;2.67;;;2.47;;
7495;SDS011;3789;47.064;15.482;2022-07-18T12:45:56;2.40;;;2.20;;
7495;SDS011;3789;47.064;15.482;2022-07-18T12:48:26;3.47;;;2.60;;
7495;SDS011;3789;47.064;15.482;2022-07-18T12:53:30;2.45;;;2.25;;
7495;SDS011;3789;47.064;15.482;2022-07-18T12:55:59;3.65;;;2.60;;
7495;SDS011;3789;47.064;15.482;2022-07-18T12:58:29;4.68;;;2.63;;
7495;SDS011;3789;47.064;15.482;2022-07-18T13:00:57;3.03;;;2.72;;
7495;SDS011;3789;47.064;15.482;2022-07-18T13:03:32;2.70;;;2.50;;
7495;SDS011;3789;47.064;15.482;2022-07-18T13:06:00;2.65;;;2.45;;
7495;SDS011;3789;47.064;15.482;2022-07-18T13:08:30;2.55;;;2.35;;
7495;SDS011;3789;47.064;15.482;2022-07-18T13:10:59;3.95;;;2.70;;
7495;SDS011;3789;47.064;15.482;2022-07-18T13:13:27;2.55;;;2.30;;
7495;SDS011;3789;47.064;15.482;2022-07-18T13:15:54;3.10;;;2.80;;
7495;SDS011;3789;47.064;15.482;2022-07-18T13:18:21;2.55;;;2.35;;
7495;SDS011;3789;47.064;15.482;2022-07-18T13:20:49;2.65;;;2.45;;
7495;SDS011;3789;47.064;15.482;2022-07-18T13:23:17;2.80;;;2.60;;
7495;SDS011;3789;47.064;15.482;2022-07-18T13:25:44;2.83;;;2.50;;
7495;SDS011;3789;47.064;15.482;2022-07-18T13:28:12;2.53;;;2.22;;
7495;SDS011;3789;47.064;15.482;2022-07-18T13:30:39;2.92;;;2.72;;
7495;SDS011;3789;47.064;15.482;2022-07-18T13:33:07;2.85;;;2.50;;
7495;SDS011;3789;47.064;15.482;2022-07-18T13:35:37;3.38;;;2.50;;
7495;SDS011;3789;47.064;15.482;2022-07-18T13:38:05;2.65;;;2.45;;
7495;SDS011;3789;47.064;15.482;2022-07-18T13:40:33;3.67;;;2.40;;
7495;SDS011;3789;47.064;15.482;2022-07-18T13:43:00;3.92;;;2.60;;
7495;SDS011;3789;47.064;15.482;2022-07-18T13:45:28;2.65;;;2.45;;
7495;SDS011;3789;47.064;15.482;2022-07-18T13:47:55;4.75;;;2.38;;
7495;SDS011;3789;47.064;15.482;2022-07-18T13:50:22;2.53;;;2.20;;
7495;SDS011;3789;47.064;15.482;2022-07-18T13:52:50;2.80;;;2.60;;
7495;SDS011;3789;47.064;15.482;2022-07-18T13:55:17;3.20;;;2.70;;
7495;SDS011;3789;47.064;15.482;2022-07-18T13:57:44;2.80;;;2.50;;
7495;SDS011;3789;47.064;15.482;2022-07-18T14:00:12;2.47;;;2.20;;
7495;SDS011;3789;47.064;15.482;2022-07-18T14:02:40;2.80;;;2.20;;
7495;SDS011;3789;47.064;15.482;2022-07-18T14:05:11;3.25;;;2.40;;
7495;SDS011;3789;47.064;15.482;2022-07-18T14:07:44;2.55;;;2.35;;
7495;SDS011;3789;47.064;15.482;2022-07-18T14:10:12;2.63;;;2.42;;
7495;SDS011;3789;47.064;15.482;2022-07-18T14:12:40;2.50;;;2.30;;
7495;SDS011;3789;47.064;15.482;2022-07-18T14:15:08;2.25;;;2.15;;
7495;SDS011;3789;47.064;15.482;2022-07-18T14:17:36;2.70;;;2.50;;
7495;SDS011;3789;47.064;15.482;2022-07-18T14:20:03;2.60;;;2.40;;
7495;SDS011;3789;47.064;15.482;2022-07-18T14:22:33;2.65;;;2.42;;
7495;SDS011;3789;47.064;15.482;2022-07-18T14:25:02;2.40;;;2.20;;
7495;SDS011;3789;47.064;15.482;2022-07-18T14:27:30;2.90;;;2.63;;
7495;SDS011;3789;47.064;15.482;2022-07-18T14:29:57;2.78;;;2.50;;
7495;SDS011;3789;47.064;15.482;2022-07-18T14:32:28;3.47;;;2.33;;
7495;SDS011;3789;47.064;15.482;2022-07-18T14:34:58;2.75;;;2.47;;
7495;SDS011;3789;47.064;15.482;2022-07-18T14:37:26;2.92;;;2.60;;
7495;SDS011;3789;47.064;15.482;2022-07-18T14:39:53;2.60;;;2.40;;
7495;SDS011;3789;47.064;15.482;2022-07-18T14:42:23;3.05;;;2.75;;
7495;SDS011;3789;47.064;15.482;2022-07-18T14:44:51;3.35;;;2.90;;
7495;SDS011;3789;47.064;15.482;2022-07-18T14:47:19;2.83;;;2.63;;
7495;SDS011;3789;47.064;15.482;2022-07-18T14:49:47;2.72;;;2.28;;
7495;SDS011;3789;47.064;15.482;2022-07-18T14:52:14;3.20;;;2.53;;
7495;SDS011;3789;47.064;15.482;2022-07-18T14:54:41;2.20;;;2.00;;
7495;SDS011;3789;47.064;15.482;2022-07-18T14:57:08;2.47;;;2.28;;
7495;SDS011;3789;47.064;15.482;2022-07-18T14:59:36;2.42;;;2.22;;
7495;SDS011;3789;47.064;15.482;2022-07-18T15:02:03;3.35;;;3.05;;
7495;SDS011;3789;47.064;15.482;2022-07-18T15:04:33;2.88;;;2.65;;
7495;SDS011;3789;47.064;15.482;2022-07-18T15:07:02;2.70;;;2.50;;
7495;SDS011;3789;47.064;15.482;2022-07-18T15:09:30;4.07;;;2.60;;
7495;SDS011;3789;47.064;15.482;2022-07-18T15:12:00;2.60;;;2.40;;
7495;SDS011;3789;47.064;15.482;2022-07-18T15:14:28;2.45;;;2.28;;
7495;SDS011;3789;47.064;15.482;2022-07-18T15:16:55;3.08;;;2.50;;
7495;SDS011;3789;47.064;15.482;2022-07-18T15:19:23;2.60;;;2.40;;
7495;SDS011;3789;47.064;15.482;2022-07-18T15:21:50;2.72;;;2.53;;
7495;SDS011;3789;47.064;15.482;2022-07-18T15:24:17;2.63;;;2.22;;
7495;SDS011;3789;47.064;15.482;2022-07-18T15:26:45;2.83;;;2.30;;
7495;SDS011;3789;47.064;15.482;2022-07-18T15:29:12;3.50;;;2.67;;
7495;SDS011;3789;47.064;15.482;2022-07-18T15:31:39;2.70;;;2.50;;
7495;SDS011;3789;47.064;15.482;2022-07-18T15:34:07;2.95;;;2.67;;
7495;SDS011;3789;47.064;15.482;2022-07-18T15:36:34;3.92;;;2.55;;
7495;SDS011;3789;47.064;15.482;2022-07-18T15:39:02;2.83;;;2.63;;
7495;SDS011;3789;47.064;15.482;2022-07-18T15:41:29;2.80;;;2.60;;
7495;SDS011;3789;47.064;15.482;2022-07-18T15:43:58;2.70;;;2.50;;
7495;SDS011;3789;47.064;15.482;2022-07-18T15:46:25;2.72;;;2.30;;
7495;SDS011;3789;47.064;15.482;2022-07-18T15:48:52;2.60;;;2.40;;
7495;SDS011;3789;47.064;15.482;2022-07-18T15:51:19;2.90;;;2.30;;
7495;SDS011;3789;47.064;15.482;2022-07-18T15:53:46;3.53;;;2.10;;
7495;SDS011;3789;47.064;15.482;2022-07-18T15:56:14;2.50;;;2.30;;
7495;SDS011;3789;47.064;15.482;2022-07-18T15:58:41;3.15;;;2.10;;
7495;SDS011;3789;47.064;15.482;2022-07-18T16:01:08;2.63;;;2.42;;
7495;SDS011;3789;47.064;15.482;2022-07-18T16:03:35;2.55;;;2.30;;
7495;SDS011;3789;47.064;15.482;2022-07-18T16:06:03;2.90;;;2.70;;
7495;SDS011;3789;47.064;15.482;2022-07-18T16:08:30;4.70;;;2.55;;
7495;SDS011;3789;47.064;15.482;2022-07-18T16:10:57;2.88;;;2.67;;
7495;SDS011;3789;47.064;15.482;2022-07-18T16:13:24;3.28;;;2.60;;